Time;durP1;ratioP1;P1;durP2;ratioP2;P2;SDS_P1;SDS_P2;PMS_P1;PMS_P2;Temp;Humidity;BMP_temperature;BMP_pressure;BME280_temperature;BME280_humidity;BME280_pressure;Samples;Min_cycle;Max_cycle;Signal;HPM_P1;HPM_P2
2021/12/11 00:00:06;;;;;;;2.47;1.60;;;;;;;;;;5026203;28;20206;-81
2021/12/11 00:02:34;;;;;;;2.30;2.10;;;;;;;;;;5031308;28;20217;-81
2021/12/11 00:05:01;;;;;;;2.40;1.90;;;;;;;;;;5026409;28;20206;-81
2021/12/11 00:07:34;;;;;;;3.13;2.40;;;;;;;;;;5028248;28;20242;-81
2021/12/11 00:10:02;;;;;;;2.57;1.87;;;;;;;;;;5028358;28;20226;-81
2021/12/11 00:12:34;;;;;;;3.90;1.67;;;;;;;;;;5026012;28;20202;-81
2021/12/11 00:15:09;;;;;;;1.70;1.60;;;;;;;;;;5029466;28;20234;-81
2021/12/11 00:17:36;;;;;;;3.33;2.40;;;;;;;;;;5026610;28;20238;-81
2021/12/11 00:20:15;;;;;;;2.63;2.10;;;;;;;;;;5027582;28;20207;-81
2021/12/11 00:22:43;;;;;;;2.67;2.47;;;;;;;;;;5026004;28;20237;-81
2021/12/11 00:25:11;;;;;;;2.57;2.37;;;;;;;;;;5028417;28;20222;-81
2021/12/11 00:27:41;;;;;;;3.60;3.30;;;;;;;;;;5030390;28;20253;-81
2021/12/11 00:30:13;;;;;;;5.03;3.40;;;;;;;;;;5025105;28;20211;-81
2021/12/11 00:32:46;;;;;;;4.73;3.23;;;;;;;;;;5027039;28;20211;-81
2021/12/11 00:35:15;;;;;;;3.50;3.20;;;;;;;;;;5030135;28;20270;-81
2021/12/11 00:37:42;;;;;;;3.47;3.17;;;;;;;;;;5027448;28;20218;-81
2021/12/11 00:40:11;;;;;;;4.40;3.40;;;;;;;;;;5028486;28;20199;-81
2021/12/11 00:42:40;;;;;;;4.07;3.17;;;;;;;;;;5028006;28;20203;-81
2021/12/11 00:45:10;;;;;;;7.53;3.20;;;;;;;;;;5027499;28;20250;-81
2021/12/11 00:47:46;;;;;;;3.40;3.10;;;;;;;;;;5024630;28;20233;-81
2021/12/11 00:50:14;;;;;;;3.60;3.30;;;;;;;;;;5019334;28;20219;-81
2021/12/11 00:52:44;;;;;;;3.80;3.30;;;;;;;;;;5026227;28;20214;-81
2021/12/11 00:55:20;;;;;;;4.10;3.40;;;;;;;;;;5024240;28;20218;-82
2021/12/11 00:57:50;;;;;;;4.10;3.40;;;;;;;;;;5021059;28;20282;-81
2021/12/11 01:00:20;;;;;;;5.10;3.50;;;;;;;;;;5021967;28;20201;-81
2021/12/11 01:02:51;;;;;;;4.77;3.17;;;;;;;;;;5029966;28;20225;-81
2021/12/11 01:05:18;;;;;;;5.77;3.20;;;;;;;;;;5027361;28;20214;-81
2021/12/11 01:07:46;;;;;;;5.40;3.50;;;;;;;;;;5024156;28;20202;-81
2021/12/11 01:10:15;;;;;;;5.80;3.63;;;;;;;;;;5026124;28;20206;-81
2021/12/11 01:12:48;;;;;;;5.27;3.77;;;;;;;;;;5023910;28;20202;-82
2021/12/11 01:15:19;;;;;;;6.47;4.00;;;;;;;;;;5028312;28;20207;-82
2021/12/11 01:17:59;;;;;;;4.70;3.33;;;;;;;;;;5028854;28;20312;-82
2021/12/11 01:20:35;;;;;;;5.63;3.63;;;;;;;;;;5023620;28;20210;-82
2021/12/11 01:23:03;;;;;;;6.57;3.47;;;;;;;;;;5036754;28;20213;-82
2021/12/11 01:25:30;;;;;;;4.83;3.70;;;;;;;;;;5034041;28;20215;-81
2021/12/11 01:27:59;;;;;;;7.07;3.60;;;;;;;;;;5033283;28;20203;-82
2021/12/11 01:30:30;;;;;;;4.67;3.50;;;;;;;;;;5036713;28;20216;-82
2021/12/11 01:32:58;;;;;;;5.07;3.37;;;;;;;;;;5032158;28;20260;-81
2021/12/11 01:35:25;;;;;;;5.53;3.20;;;;;;;;;;5027538;28;20280;-82
2021/12/11 01:38:00;;;;;;;3.90;3.23;;;;;;;;;;5058748;22;20265;-84
2021/12/11 01:40:31;;;;;;;4.23;3.17;;;;;;;;;;5017780;28;20217;-84
2021/12/11 01:42:59;;;;;;;4.53;3.17;;;;;;;;;;5019976;28;20191;-84
2021/12/11 01:45:27;;;;;;;3.60;3.13;;;;;;;;;;5017825;28;20294;-85
2021/12/11 01:47:55;;;;;;;3.37;2.93;;;;;;;;;;5017718;28;20241;-84
2021/12/11 01:50:24;;;;;;;3.20;2.90;;;;;;;;;;5004707;28;20208;-86
2021/12/11 01:52:55;;;;;;;3.40;2.80;;;;;;;;;;5014927;28;20266;-84
2021/12/11 01:55:24;;;;;;;3.40;2.87;;;;;;;;;;5006115;28;20207;-84
2021/12/11 01:57:52;;;;;;;3.80;3.10;;;;;;;;;;5028760;28;20211;-84
2021/12/11 02:00:22;;;;;;;3.90;3.20;;;;;;;;;;5019018;28;20270;-84
2021/12/11 02:02:53;;;;;;;4.67;3.70;;;;;;;;;;5015123;28;20277;-84
2021/12/11 02:05:22;;;;;;;4.10;3.50;;;;;;;;;;5019030;28;20214;-83
2021/12/11 02:07:51;;;;;;;5.93;3.37;;;;;;;;;;5001025;28;20227;-83
2021/12/11 02:10:20;;;;;;;6.27;3.80;;;;;;;;;;5006022;28;20207;-84
2021/12/11 02:12:47;;;;;;;4.97;4.00;;;;;;;;;;5007980;28;20258;-84
2021/12/11 02:15:17;;;;;;;4.10;3.53;;;;;;;;;;5013515;28;20199;-85
2021/12/11 02:17:46;;;;;;;3.77;3.20;;;;;;;;;;5010716;28;20238;-83
2021/12/11 02:20:21;;;;;;;4.70;3.00;;;;;;;;;;5015521;28;20206;-83
2021/12/11 02:22:52;;;;;;;5.00;3.13;;;;;;;;;;5009931;28;20267;-81
2021/12/11 02:25:20;;;;;;;2.90;2.50;;;;;;;;;;5014357;28;20266;-84
2021/12/11 02:27:50;;;;;;;2.73;2.53;;;;;;;;;;5009919;28;20228;-83
2021/12/11 02:30:21;;;;;;;3.47;2.53;;;;;;;;;;5000991;28;20214;-83
2021/12/11 02:32:51;;;;;;;3.60;3.30;;;;;;;;;;5016983;28;20580;-83
2021/12/11 02:35:21;;;;;;;4.63;3.00;;;;;;;;;;5013523;28;20230;-83
2021/12/11 02:37:51;;;;;;;3.67;3.37;;;;;;;;;;5006277;28;20231;-84
2021/12/11 02:40:21;;;;;;;4.63;3.70;;;;;;;;;;5011774;28;20222;-83
2021/12/11 02:42:51;;;;;;;4.13;3.67;;;;;;;;;;5011798;28;20294;-84
2021/12/11 02:45:21;;;;;;;6.17;3.97;;;;;;;;;;5005221;28;20207;-84
2021/12/11 02:47:50;;;;;;;4.43;4.03;;;;;;;;;;5006911;28;20314;-81
2021/12/11 02:50:19;;;;;;;6.13;4.60;;;;;;;;;;5015585;28;20206;-83
2021/12/11 02:52:47;;;;;;;5.93;5.03;;;;;;;;;;5004718;28;20266;-83
2021/12/11 02:55:18;;;;;;;5.80;4.90;;;;;;;;;;5004706;28;20229;-84
2021/12/11 02:57:47;;;;;;;5.83;5.23;;;;;;;;;;5014311;28;20686;-83
2021/12/11 03:00:22;;;;;;;6.50;5.87;;;;;;;;;;5009188;28;20235;-83
2021/12/11 03:02:59;;;;;;;7.73;6.47;;;;;;;;;;5004567;28;20202;-83
2021/12/11 03:05:35;;;;;;;7.43;5.87;;;;;;;;;;5002381;28;20207;-84
2021/12/11 03:08:05;;;;;;;7.43;6.37;;;;;;;;;;5006098;28;20223;-83
2021/12/11 03:10:35;;;;;;;8.13;6.67;;;;;;;;;;4996736;28;20215;-83
2021/12/11 03:13:04;;;;;;;8.13;6.80;;;;;;;;;;5012494;28;20211;-82
2021/12/11 03:15:31;;;;;;;7.57;6.53;;;;;;;;;;5009998;28;20316;-84
2021/12/11 03:17:59;;;;;;;8.03;6.90;;;;;;;;;;5013565;28;20243;-83
2021/12/11 03:20:27;;;;;;;8.07;6.63;;;;;;;;;;5012834;28;20249;-83
2021/12/11 03:22:55;;;;;;;8.10;7.30;;;;;;;;;;5006447;28;20207;-82
2021/12/11 03:25:27;;;;;;;9.07;7.73;;;;;;;;;;5009844;28;20294;-83
2021/12/11 03:27:58;;;;;;;9.50;7.77;;;;;;;;;;5007528;28;20231;-83
2021/12/11 03:30:32;;;;;;;11.47;8.07;;;;;;;;;;5009559;28;20203;-83
2021/12/11 03:33:02;;;;;;;10.40;9.30;;;;;;;;;;5004459;28;20302;-83
2021/12/11 03:35:32;;;;;;;11.00;9.57;;;;;;;;;;5008560;28;20249;-82
2021/12/11 03:38:01;;;;;;;10.83;9.83;;;;;;;;;;4996981;28;20246;-83
2021/12/11 03:40:28;;;;;;;11.07;9.97;;;;;;;;;;5002759;28;20207;-83
2021/12/11 03:42:59;;;;;;;11.60;10.40;;;;;;;;;;5012192;28;20210;-83
2021/12/11 03:45:30;;;;;;;13.17;10.63;;;;;;;;;;5003853;28;20258;-82
2021/12/11 03:48:00;;;;;;;10.40;9.30;;;;;;;;;;5010270;28;20246;-83
2021/12/11 03:50:30;;;;;;;12.60;10.73;;;;;;;;;;5011765;28;20591;-83
2021/12/11 03:52:59;;;;;;;12.30;11.07;;;;;;;;;;5012450;28;20203;-83
2021/12/11 03:55:30;;;;;;;12.67;10.67;;;;;;;;;;5012859;28;20206;-81
2021/12/11 03:58:06;;;;;;;12.67;11.37;;;;;;;;;;5014167;28;20222;-83
2021/12/11 04:00:38;;;;;;;12.37;10.67;;;;;;;;;;5013640;28;20202;-86
2021/12/11 04:03:07;;;;;;;12.10;10.73;;;;;;;;;;5008789;28;20238;-83
2021/12/11 04:05:35;;;;;;;14.77;12.67;;;;;;;;;;5015080;28;20257;-85
2021/12/11 04:08:03;;;;;;;16.83;13.67;;;;;;;;;;5014048;28;20639;-83
2021/12/11 04:10:33;;;;;;;14.83;13.10;;;;;;;;;;5014068;28;20305;-83
2021/12/11 04:13:05;;;;;;;17.80;13.83;;;;;;;;;;5007614;28;20207;-82
2021/12/11 04:15:34;;;;;;;18.67;14.10;;;;;;;;;;5014475;28;20211;-83
2021/12/11 04:18:01;;;;;;;18.70;13.57;;;;;;;;;;5012808;28;20218;-83
2021/12/11 04:20:29;;;;;;;20.80;15.23;;;;;;;;;;5011618;28;20313;-83
2021/12/11 04:22:57;;;;;;;19.60;14.57;;;;;;;;;;5014802;28;20207;-82
2021/12/11 04:25:25;;;;;;;20.47;15.47;;;;;;;;;;5010325;28;20225;-83
2021/12/11 04:27:53;;;;;;;20.63;15.80;;;;;;;;;;5008609;28;20232;-83
2021/12/11 04:30:23;;;;;;;21.07;16.13;;;;;;;;;;5007133;28;20663;-84
2021/12/11 04:32:54;;;;;;;21.10;15.70;;;;;;;;;;5012086;28;20346;-85
2021/12/11 04:35:22;;;;;;;20.93;15.40;;;;;;;;;;5013294;28;20234;-84
2021/12/11 04:37:49;;;;;;;22.73;16.50;;;;;;;;;;5004718;28;20232;-83
2021/12/11 04:40:19;;;;;;;23.27;17.53;;;;;;;;;;5012728;28;20296;-84
2021/12/11 04:42:54;;;;;;;22.50;16.33;;;;;;;;;;5004523;28;20211;-84
2021/12/11 04:45:25;;;;;;;23.80;16.23;;;;;;;;;;5007219;28;20203;-81
2021/12/11 04:47:57;;;;;;;23.10;15.77;;;;;;;;;;5013426;28;20242;-83
2021/12/11 04:50:28;;;;;;;21.47;16.30;;;;;;;;;;5008141;28;20199;-83
2021/12/11 04:52:58;;;;;;;18.70;13.93;;;;;;;;;;5011181;28;20233;-83
2021/12/11 04:55:43;;;;;;;22.97;16.67;;;;;;;;;;5004166;28;20207;-83
2021/12/11 04:58:28;;;;;;;23.07;17.53;;;;;;;;;;5011928;28;20245;-84
2021/12/11 05:01:10;;;;;;;22.13;15.67;;;;;;;;;;5027810;28;20208;-83
2021/12/11 05:04:10;;;;;;;23.80;17.20;;;;;;;;;;5027006;28;20249;-85
2021/12/11 05:06:48;;;;;;;22.17;16.37;;;;;;;;;;5029149;28;20198;-83
2021/12/11 05:09:25;;;;;;;21.20;15.97;;;;;;;;;;5022761;28;20236;-80
2021/12/11 05:12:06;;;;;;;21.13;15.67;;;;;;;;;;5021922;28;20203;-83
2021/12/11 05:14:34;;;;;;;20.97;15.20;;;;;;;;;;5020736;28;20214;-83
2021/12/11 05:17:02;;;;;;;25.57;16.47;;;;;;;;;;5011113;28;20206;-83
2021/12/11 05:19:30;;;;;;;22.40;15.87;;;;;;;;;;5016781;28;20226;-81
2021/12/11 05:21:57;;;;;;;21.27;14.87;;;;;;;;;;5017139;28;20254;-84
2021/12/11 05:24:25;;;;;;;25.30;16.50;;;;;;;;;;5004724;28;20207;-84
2021/12/11 05:26:52;;;;;;;23.77;16.77;;;;;;;;;;5015992;28;20239;-81
2021/12/11 05:29:19;;;;;;;24.50;17.47;;;;;;;;;;5022121;28;20257;-80
2021/12/11 05:31:54;;;;;;;26.03;18.33;;;;;;;;;;5007631;28;20234;-82
2021/12/11 05:34:26;;;;;;;23.80;16.07;;;;;;;;;;5017434;28;20198;-84
2021/12/11 05:36:56;;;;;;;24.93;17.73;;;;;;;;;;5013743;28;20270;-84
2021/12/11 05:39:23;;;;;;;22.97;15.73;;;;;;;;;;5010195;28;20232;-83
2021/12/11 05:41:51;;;;;;;23.90;16.60;;;;;;;;;;5015804;28;20614;-83
2021/12/11 05:44:20;;;;;;;23.23;17.07;;;;;;;;;;5014251;28;20207;-83
2021/12/11 05:46:48;;;;;;;24.60;16.77;;;;;;;;;;5016628;28;20264;-84
2021/12/11 05:49:16;;;;;;;21.03;15.53;;;;;;;;;;5014850;28;20256;-80
2021/12/11 05:51:46;;;;;;;21.93;15.53;;;;;;;;;;5010948;28;20226;-82
2021/12/11 05:54:16;;;;;;;29.50;18.60;;;;;;;;;;5015197;28;20207;-83
2021/12/11 05:56:43;;;;;;;25.87;18.57;;;;;;;;;;5022226;28;20203;-83
2021/12/11 05:59:12;;;;;;;25.47;18.70;;;;;;;;;;5020662;28;20226;-80
2021/12/11 06:01:44;;;;;;;26.57;18.43;;;;;;;;;;5013154;28;20222;-83
2021/12/11 06:04:13;;;;;;;26.40;18.57;;;;;;;;;;5006926;28;20309;-82
2021/12/11 06:06:43;;;;;;;28.57;20.03;;;;;;;;;;5011478;28;20226;-84
2021/12/11 06:09:14;;;;;;;26.13;18.53;;;;;;;;;;5001681;28;20223;-83
2021/12/11 06:11:42;;;;;;;28.13;18.70;;;;;;;;;;5011390;28;20282;-83
2021/12/11 06:14:09;;;;;;;23.33;17.23;;;;;;;;;;5025880;28;20207;-84
2021/12/11 06:16:37;;;;;;;27.80;18.33;;;;;;;;;;5014174;28;20202;-84
2021/12/11 06:19:05;;;;;;;28.57;19.20;;;;;;;;;;5014658;28;20222;-83
2021/12/11 06:21:34;;;;;;;31.13;20.93;;;;;;;;;;5017971;28;20223;-83
2021/12/11 06:24:01;;;;;;;28.33;19.50;;;;;;;;;;5012170;28;20297;-83
2021/12/11 06:26:30;;;;;;;25.17;17.80;;;;;;;;;;5010303;28;20238;-85
2021/12/11 06:28:58;;;;;;;27.43;18.50;;;;;;;;;;5002702;28;20227;-81
2021/12/11 06:31:25;;;;;;;25.03;18.60;;;;;;;;;;5010538;28;20297;-85
2021/12/11 06:33:53;;;;;;;25.53;17.00;;;;;;;;;;5013369;28;20678;-83
2021/12/11 06:36:26;;;;;;;28.83;17.70;;;;;;;;;;5011799;28;20284;-83
2021/12/11 06:38:54;;;;;;;29.23;18.93;;;;;;;;;;5007035;28;20296;-84
2021/12/11 06:41:25;;;;;;;25.70;17.07;;;;;;;;;;5016999;28;20195;-85
2021/12/11 06:43:54;;;;;;;28.07;18.00;;;;;;;;;;5030338;28;20198;-85
2021/12/11 06:46:21;;;;;;;26.73;17.70;;;;;;;;;;5025602;28;20199;-85
2021/12/11 06:48:49;;;;;;;24.67;17.13;;;;;;;;;;5029695;28;20313;-85
2021/12/11 06:51:19;;;;;;;24.90;16.60;;;;;;;;;;5027411;28;20195;-83
2021/12/11 06:53:48;;;;;;;23.87;17.27;;;;;;;;;;5020953;28;20237;-83
2021/12/11 06:56:17;;;;;;;27.33;18.30;;;;;;;;;;5022344;28;20222;-83
2021/12/11 06:58:44;;;;;;;29.03;18.60;;;;;;;;;;5021597;28;20233;-82
2021/12/11 07:01:19;;;;;;;28.40;19.17;;;;;;;;;;5019697;28;20219;-83
2021/12/11 07:03:47;;;;;;;29.63;19.43;;;;;;;;;;5020088;28;20219;-83
2021/12/11 07:06:14;;;;;;;26.00;18.47;;;;;;;;;;5010453;28;20206;-82
2021/12/11 07:08:44;;;;;;;27.43;18.97;;;;;;;;;;5001515;28;20254;-82
2021/12/11 07:11:12;;;;;;;28.77;18.97;;;;;;;;;;5000931;28;20200;-83
2021/12/11 07:13:39;;;;;;;27.30;18.20;;;;;;;;;;5001851;28;20199;-83
2021/12/11 07:16:07;;;;;;;27.20;19.00;;;;;;;;;;5013606;28;20206;-84
2021/12/11 07:18:36;;;;;;;26.07;19.00;;;;;;;;;;5015966;28;20219;-81
2021/12/11 07:21:03;;;;;;;28.27;18.53;;;;;;;;;;5013141;28;20214;-83
2021/12/11 07:23:30;;;;;;;29.13;18.37;;;;;;;;;;5009858;28;20261;-83
2021/12/11 07:26:03;;;;;;;29.23;20.07;;;;;;;;;;5020445;28;20233;-84
2021/12/11 07:28:31;;;;;;;25.47;18.27;;;;;;;;;;5017263;28;20230;-82
2021/12/11 07:31:02;;;;;;;24.30;17.43;;;;;;;;;;5012482;28;20753;-83
2021/12/11 07:33:33;;;;;;;27.87;17.13;;;;;;;;;;5022834;28;20233;-84
2021/12/11 07:36:14;;;;;;;24.93;16.40;;;;;;;;;;5019468;28;20205;-83
2021/12/11 07:38:42;;;;;;;23.43;16.40;;;;;;;;;;5023618;23;20222;-79
2021/12/11 07:41:10;;;;;;;23.10;17.23;;;;;;;;;;5017544;28;20687;-79
2021/12/11 07:43:39;;;;;;;22.97;16.87;;;;;;;;;;5018863;28;20262;-79
2021/12/11 07:46:07;;;;;;;23.43;17.97;;;;;;;;;;5018045;28;20203;-79
2021/12/11 07:48:35;;;;;;;23.43;17.03;;;;;;;;;;5018598;28;20226;-80
2021/12/11 07:51:04;;;;;;;20.33;15.07;;;;;;;;;;5023728;28;20218;-79
2021/12/11 07:53:31;;;;;;;22.13;15.83;;;;;;;;;;5033181;28;20206;-79
2021/12/11 07:55:58;;;;;;;21.57;15.97;;;;;;;;;;5034244;28;20262;-79
2021/12/11 07:58:26;;;;;;;19.43;15.07;;;;;;;;;;5033375;28;20242;-80
2021/12/11 08:00:53;;;;;;;21.97;15.37;;;;;;;;;;5030787;28;20221;-80
2021/12/11 08:03:21;;;;;;;21.33;16.03;;;;;;;;;;5032821;28;20234;-79
2021/12/11 08:05:50;;;;;;;20.63;16.50;;;;;;;;;;5032463;28;20214;-80
2021/12/11 08:08:19;;;;;;;18.37;14.90;;;;;;;;;;5031155;28;20227;-80
2021/12/11 08:10:50;;;;;;;19.00;15.73;;;;;;;;;;5036539;28;20199;-79
2021/12/11 08:13:18;;;;;;;21.20;16.80;;;;;;;;;;5034059;28;20198;-79
2021/12/11 08:15:45;;;;;;;20.53;16.20;;;;;;;;;;5028329;28;20214;-80
2021/12/11 08:18:13;;;;;;;20.80;16.60;;;;;;;;;;5027288;28;20245;-82
2021/12/11 08:20:42;;;;;;;20.27;15.73;;;;;;;;;;5021005;28;20214;-85
2021/12/11 08:23:10;;;;;;;21.57;17.67;;;;;;;;;;5027100;28;20258;-80
2021/12/11 08:25:40;;;;;;;22.93;17.27;;;;;;;;;;5022447;28;20253;-80
2021/12/11 08:28:08;;;;;;;24.23;20.77;;;;;;;;;;5024197;28;20246;-80
2021/12/11 08:30:37;;;;;;;22.27;18.83;;;;;;;;;;5015860;28;20573;-79
2021/12/11 08:33:04;;;;;;;32.47;23.87;;;;;;;;;;5019795;28;20230;-79
2021/12/11 08:35:32;;;;;;;22.10;18.23;;;;;;;;;;5020563;28;20290;-79
2021/12/11 08:37:59;;;;;;;24.30;20.70;;;;;;;;;;5020379;28;20230;-79
2021/12/11 08:40:28;;;;;;;25.97;20.33;;;;;;;;;;5019420;28;20299;-79
2021/12/11 08:42:58;;;;;;;28.17;23.07;;;;;;;;;;5020649;28;20273;-79
2021/12/11 08:45:43;;;;;;;22.80;20.23;;;;;;;;;;5021206;28;20241;-80
2021/12/11 08:48:11;;;;;;;23.23;20.63;;;;;;;;;;5020292;28;20264;-79
2021/12/11 08:50:38;;;;;;;22.30;19.60;;;;;;;;;;5021190;28;20201;-80
2021/12/11 08:53:05;;;;;;;24.50;19.53;;;;;;;;;;5021666;28;20203;-78
2021/12/11 08:55:39;;;;;;;19.73;17.63;;;;;;;;;;5017538;28;20295;-80
2021/12/11 08:58:09;;;;;;;19.57;17.20;;;;;;;;;;5018829;28;20249;-80
2021/12/11 09:00:38;;;;;;;17.47;15.37;;;;;;;;;;5021494;28;20222;-79
2021/12/11 09:03:08;;;;;;;16.87;15.20;;;;;;;;;;5024584;28;20269;-79
2021/12/11 09:05:38;;;;;;;16.97;15.03;;;;;;;;;;5011821;28;20211;-78
2021/12/11 09:08:10;;;;;;;16.53;14.67;;;;;;;;;;5005208;28;20227;-79
2021/12/11 09:10:40;;;;;;;13.90;12.40;;;;;;;;;;5003412;28;20206;-79
2021/12/11 09:13:12;;;;;;;15.53;13.50;;;;;;;;;;5013513;28;20297;-80
2021/12/11 09:15:44;;;;;;;14.83;12.60;;;;;;;;;;5014744;28;20294;-79
2021/12/11 09:18:13;;;;;;;12.53;11.33;;;;;;;;;;5015035;28;20317;-79
2021/12/11 09:20:43;;;;;;;11.30;10.13;;;;;;;;;;5014830;28;20315;-80
2021/12/11 09:23:13;;;;;;;14.73;12.00;;;;;;;;;;5018725;28;20245;-80
2021/12/11 09:25:43;;;;;;;11.27;10.17;;;;;;;;;;5017435;28;20294;-79
2021/12/11 09:28:13;;;;;;;11.90;10.77;;;;;;;;;;5018986;28;20265;-80
2021/12/11 09:30:43;;;;;;;12.27;11.03;;;;;;;;;;5017026;28;20686;-79
2021/12/11 09:33:12;;;;;;;10.10;9.07;;;;;;;;;;5014671;28;20289;-78
2021/12/11 09:35:41;;;;;;;10.77;9.77;;;;;;;;;;5016727;28;20214;-80
2021/12/11 09:38:09;;;;;;;9.47;8.57;;;;;;;;;;5016636;28;20237;-82
2021/12/11 09:40:55;;;;;;;9.93;9.03;;;;;;;;;;5015533;28;20233;-79
2021/12/11 09:43:40;;;;;;;10.23;9.23;;;;;;;;;;5012251;28;20202;-79
2021/12/11 09:46:10;;;;;;;10.13;9.13;;;;;;;;;;5015001;28;20202;-79
2021/12/11 09:48:40;;;;;;;9.37;8.43;;;;;;;;;;5018811;28;20312;-80
2021/12/11 09:51:11;;;;;;;9.10;8.13;;;;;;;;;;5019537;28;20207;-79
2021/12/11 09:53:39;;;;;;;8.73;7.93;;;;;;;;;;5018809;28;20216;-79
2021/12/11 09:56:08;;;;;;;8.00;7.30;;;;;;;;;;5017870;28;20207;-79
2021/12/11 09:58:36;;;;;;;6.80;6.10;;;;;;;;;;5008611;28;20265;-79
2021/12/11 10:01:06;;;;;;;7.90;7.20;;;;;;;;;;5015910;28;20313;-78
2021/12/11 10:03:39;;;;;;;8.73;7.93;;;;;;;;;;5017059;28;20245;-79
2021/12/11 10:06:13;;;;;;;7.73;7.00;;;;;;;;;;5019158;28;20219;-79
2021/12/11 10:08:44;;;;;;;8.53;7.63;;;;;;;;;;5018589;28;20634;-79
2021/12/11 10:11:13;;;;;;;8.03;7.17;;;;;;;;;;5016677;28;20206;-79
2021/12/11 10:13:41;;;;;;;7.17;6.57;;;;;;;;;;5017158;28;20237;-79
2021/12/11 10:16:09;;;;;;;7.37;6.57;;;;;;;;;;5019269;28;20207;-79
2021/12/11 10:18:37;;;;;;;7.83;7.00;;;;;;;;;;5017005;28;20245;-79
2021/12/11 10:21:07;;;;;;;7.27;6.57;;;;;;;;;;5018182;28;20226;-79
2021/12/11 10:23:36;;;;;;;8.20;7.50;;;;;;;;;;5018171;28;20230;-79
2021/12/11 10:26:04;;;;;;;7.37;6.67;;;;;;;;;;5018720;28;20290;-79
2021/12/11 10:28:31;;;;;;;7.97;7.20;;;;;;;;;;5018197;28;20313;-79
2021/12/11 10:31:00;;;;;;;7.73;6.97;;;;;;;;;;5024755;28;20234;-79
2021/12/11 10:33:36;;;;;;;6.87;6.27;;;;;;;;;;5024256;28;20195;-87
2021/12/11 10:36:06;;;;;;;7.37;6.70;;;;;;;;;;5022650;28;20203;-80
2021/12/11 10:38:34;;;;;;;7.43;6.73;;;;;;;;;;5017824;28;20269;-80
2021/12/11 10:41:02;;;;;;;8.47;7.67;;;;;;;;;;5022681;28;20227;-81
2021/12/11 10:43:31;;;;;;;7.07;6.43;;;;;;;;;;5023272;28;20234;-81
2021/12/11 10:45:59;;;;;;;7.07;6.40;;;;;;;;;;5026430;28;20183;-80
2021/12/11 10:48:28;;;;;;;6.37;5.77;;;;;;;;;;5028206;28;20245;-81
2021/12/11 10:50:57;;;;;;;6.80;6.20;;;;;;;;;;5024758;28;20223;-80
2021/12/11 10:53:28;;;;;;;6.90;6.30;;;;;;;;;;5030339;28;20201;-81
2021/12/11 10:55:56;;;;;;;7.23;6.53;;;;;;;;;;5024985;28;20230;-82
2021/12/11 10:58:26;;;;;;;7.23;6.60;;;;;;;;;;5024795;28;20320;-81
2021/12/11 11:00:54;;;;;;;7.37;6.67;;;;;;;;;;5028788;28;20214;-81
2021/12/11 11:03:22;;;;;;;6.97;6.30;;;;;;;;;;5025586;28;20200;-81
2021/12/11 11:05:50;;;;;;;7.40;6.53;;;;;;;;;;5028311;28;20214;-81
2021/12/11 11:08:17;;;;;;;7.10;6.47;;;;;;;;;;5035692;28;20218;-80
2021/12/11 11:10:48;;;;;;;8.80;7.90;;;;;;;;;;5031716;28;20198;-82
2021/12/11 11:13:16;;;;;;;7.50;6.80;;;;;;;;;;5020324;28;20237;-82
2021/12/11 11:15:44;;;;;;;7.10;6.40;;;;;;;;;;5018951;28;20210;-84
2021/12/11 11:18:13;;;;;;;7.70;6.90;;;;;;;;;;5020411;28;20219;-83
2021/12/11 11:20:42;;;;;;;8.23;7.30;;;;;;;;;;5021141;28;20280;-81
2021/12/11 11:23:10;;;;;;;7.60;6.93;;;;;;;;;;5028419;28;20206;-81
2021/12/11 11:25:40;;;;;;;7.70;6.90;;;;;;;;;;5018279;28;20202;-81
2021/12/11 11:28:10;;;;;;;7.03;6.33;;;;;;;;;;5028931;28;20237;-82
2021/12/11 11:30:39;;;;;;;7.03;6.40;;;;;;;;;;5025744;28;20222;-80
2021/12/11 11:33:07;;;;;;;7.33;6.63;;;;;;;;;;5021273;28;20237;-83
2021/12/11 11:35:38;;;;;;;7.43;6.30;;;;;;;;;;5022984;28;20270;-81
2021/12/11 11:38:08;;;;;;;7.50;6.80;;;;;;;;;;5020378;28;20231;-84
2021/12/11 11:40:37;;;;;;;6.47;5.87;;;;;;;;;;5016115;28;20230;-83
2021/12/11 11:43:06;;;;;;;7.80;7.03;;;;;;;;;;5016755;28;20249;-82
2021/12/11 11:45:35;;;;;;;7.03;6.33;;;;;;;;;;5019553;28;20333;-84
2021/12/11 11:48:02;;;;;;;6.90;6.20;;;;;;;;;;5022478;28;20488;-82
2021/12/11 11:50:31;;;;;;;7.90;7.07;;;;;;;;;;5025824;28;20202;-82
2021/12/11 11:52:58;;;;;;;7.13;6.53;;;;;;;;;;5031087;28;20199;-81
2021/12/11 11:55:27;;;;;;;7.50;6.80;;;;;;;;;;5025794;28;20232;-82
2021/12/11 11:57:55;;;;;;;7.77;7.07;;;;;;;;;;5019426;28;20211;-81
2021/12/11 12:00:25;;;;;;;8.00;7.27;;;;;;;;;;5030050;28;20232;-82
2021/12/11 12:02:55;;;;;;;8.80;7.87;;;;;;;;;;5030564;28;20230;-81
2021/12/11 12:05:23;;;;;;;8.10;7.30;;;;;;;;;;5032057;28;20212;-82
2021/12/11 12:07:50;;;;;;;7.67;6.93;;;;;;;;;;5031664;28;20222;-82
2021/12/11 12:10:19;;;;;;;7.63;6.83;;;;;;;;;;5029855;28;20206;-82
2021/12/11 12:12:46;;;;;;;8.30;7.47;;;;;;;;;;5037328;28;20217;-82
2021/12/11 12:15:16;;;;;;;9.07;8.17;;;;;;;;;;5029970;28;20217;-84
2021/12/11 12:17:46;;;;;;;8.90;7.80;;;;;;;;;;5024831;28;20218;-82
2021/12/11 12:20:16;;;;;;;7.90;7.13;;;;;;;;;;5023834;28;20221;-82
2021/12/11 12:22:43;;;;;;;7.73;6.70;;;;;;;;;;5034318;28;20308;-85
2021/12/11 12:25:11;;;;;;;7.77;6.97;;;;;;;;;;5025678;28;20222;-83
2021/12/11 12:27:42;;;;;;;11.83;9.83;;;;;;;;;;5028154;28;20202;-83
2021/12/11 12:30:12;;;;;;;9.23;8.23;;;;;;;;;;5029694;28;20213;-83
2021/12/11 12:32:40;;;;;;;6.87;6.03;;;;;;;;;;5033017;28;20194;-82
2021/12/11 12:35:10;;;;;;;8.13;7.37;;;;;;;;;;5031742;28;20217;-82
2021/12/11 12:37:41;;;;;;;7.90;7.10;;;;;;;;;;5027267;28;20794;-85
2021/12/11 12:40:11;;;;;;;7.43;6.73;;;;;;;;;;5030384;28;20213;-83
2021/12/11 12:42:40;;;;;;;8.80;6.93;;;;;;;;;;5027221;28;20217;-84
2021/12/11 12:45:10;;;;;;;8.70;7.43;;;;;;;;;;5021445;28;20221;-85
2021/12/11 12:47:39;;;;;;;6.40;5.80;;;;;;;;;;5019056;28;20202;-83
2021/12/11 12:50:08;;;;;;;6.87;6.27;;;;;;;;;;5021203;28;20226;-84
2021/12/11 12:52:38;;;;;;;7.20;6.50;;;;;;;;;;5016830;28;20301;-81
2021/12/11 12:55:09;;;;;;;9.07;7.90;;;;;;;;;;5020946;28;20265;-81
2021/12/11 12:57:38;;;;;;;7.57;6.83;;;;;;;;;;5022284;28;20266;-81
2021/12/11 13:00:11;;;;;;;7.80;7.10;;;;;;;;;;5019253;28;20229;-81
2021/12/11 13:02:42;;;;;;;7.73;6.97;;;;;;;;;;5019972;28;20222;-85
2021/12/11 13:05:13;;;;;;;7.23;6.37;;;;;;;;;;5019818;28;20210;-82
2021/12/11 13:07:40;;;;;;;7.03;6.20;;;;;;;;;;5021596;28;20194;-82
2021/12/11 13:10:12;;;;;;;6.87;6.17;;;;;;;;;;5016767;28;20260;-81
2021/12/11 13:12:41;;;;;;;7.40;6.60;;;;;;;;;;5020222;28;20194;-81
2021/12/11 13:15:10;;;;;;;6.80;5.83;;;;;;;;;;5020213;28;20250;-83
2021/12/11 13:17:42;;;;;;;7.03;5.90;;;;;;;;;;5019653;28;20575;-82
2021/12/11 13:20:11;;;;;;;7.00;6.30;;;;;;;;;;5024449;28;20270;-83
2021/12/11 13:22:40;;;;;;;7.27;6.57;;;;;;;;;;5023490;28;20222;-82
2021/12/11 13:25:14;;;;;;;7.77;6.10;;;;;;;;;;5025399;28;20214;-83
2021/12/11 13:27:41;;;;;;;6.60;5.90;;;;;;;;;;5024426;28;20258;-83
2021/12/11 13:30:12;;;;;;;7.10;6.40;;;;;;;;;;5019965;28;20226;-87
2021/12/11 13:32:40;;;;;;;7.30;5.80;;;;;;;;;;5018568;28;20295;-82
2021/12/11 13:35:09;;;;;;;6.30;5.47;;;;;;;;;;5023644;28;20231;-83
2021/12/11 13:37:37;;;;;;;6.53;5.93;;;;;;;;;;5013638;28;20210;-82
2021/12/11 13:42:53;;;;;;;7.90;7.00;;;;;;;;;;4994476;28;20320;-82
2021/12/11 13:45:34;;;;;;;8.57;6.40;;;;;;;;;;5008940;28;20291;-79
2021/12/11 13:48:06;;;;;;;6.83;6.13;;;;;;;;;;5008643;28;20218;-80
2021/12/11 13:50:35;;;;;;;6.90;6.20;;;;;;;;;;5004661;28;20233;-82
2021/12/11 13:53:06;;;;;;;7.07;6.37;;;;;;;;;;4998439;28;20207;-81
2021/12/11 14:05:44;;;;;;;6.50;5.60;;;;;;;;;;4934068;29;20217;-80
2021/12/11 14:08:16;;;;;;;6.33;5.73;;;;;;;;;;4998130;28;20203;-81
2021/12/11 14:11:04;;;;;;;7.07;6.37;;;;;;;;;;4994234;28;20231;-82
2021/12/11 14:13:56;;;;;;;6.63;6.03;;;;;;;;;;4992642;28;20239;-83
2021/12/11 14:16:47;;;;;;;8.37;6.20;;;;;;;;;;4994200;28;20215;-84
2021/12/11 14:19:25;;;;;;;5.77;5.27;;;;;;;;;;4996825;28;20230;-83
2021/12/11 14:22:25;;;;;;;7.23;6.10;;;;;;;;;;4998023;28;20687;-81
2021/12/11 14:25:12;;;;;;;5.87;5.37;;;;;;;;;;4997766;28;20203;-81
2021/12/11 14:33:23;;;;;;;6.70;5.97;;;;;;;;;;4991312;28;20211;-82
2021/12/11 14:35:50;;;;;;;6.43;5.80;;;;;;;;;;4994766;28;20311;-79
2021/12/11 14:38:20;;;;;;;6.53;5.77;;;;;;;;;;4994080;28;20214;-79
2021/12/11 14:40:51;;;;;;;6.97;6.27;;;;;;;;;;4989129;28;20262;-82
2021/12/11 14:43:22;;;;;;;7.20;6.53;;;;;;;;;;4987980;28;20215;-84
2021/12/11 14:45:51;;;;;;;7.77;7.03;;;;;;;;;;4993293;28;20229;-82
2021/12/11 14:48:19;;;;;;;7.40;6.70;;;;;;;;;;5002455;28;20195;-84
2021/12/11 14:50:49;;;;;;;8.97;8.07;;;;;;;;;;5007569;28;20223;-85
2021/12/11 14:53:19;;;;;;;7.90;7.10;;;;;;;;;;5004914;28;20279;-84
2021/12/11 14:55:49;;;;;;;8.43;7.53;;;;;;;;;;5002194;28;20191;-81
2021/12/11 14:58:17;;;;;;;9.37;8.20;;;;;;;;;;5007635;28;20409;-81
2021/12/11 15:00:46;;;;;;;12.07;9.00;;;;;;;;;;5013868;28;20226;-85
2021/12/11 15:03:16;;;;;;;8.90;8.00;;;;;;;;;;5013726;28;20250;-87
2021/12/11 15:05:45;;;;;;;8.63;7.83;;;;;;;;;;5002170;28;20275;-86
2021/12/11 15:08:15;;;;;;;8.93;7.90;;;;;;;;;;5003661;28;20199;-86